Flight Track Log - Related Links

Times and Time Zones

All times are in EDT time to prevent confusion due to time zone crossing. See the EZY2759 flight status page for this flight to view local times or setup timezone preferences in your user account.

Time Position Orientation Groundspeed Altitude Reporting Facility
EDT Latitude Longitude Course Direction KTS MPH feet Rate Location/Type
Sun 12:41:00 AM 45.1911 7.9782 230° Southwest  Level Estimated
Sun 12:42:00 AM 45.1419 7.8956 230° Southwest  Level Estimated
Sun 12:43:00 AM 45.0927 7.8131 230° Southwest  Level Estimated
Sun 12:44:00 AM 45.0435 7.7308 230° Southwest  Level Estimated
Sun 12:45:00 AM 44.9941 7.6487 230° Southwest  Level Estimated
Sun 12:46:00 AM 44.9448 7.5666 230° Southwest  Level Estimated
Sun 12:47:00 AM 44.8954 7.4847 230° Southwest  Level Estimated
Sun 12:48:00 AM 44.8407 7.3945 230° Southwest  Level Estimated
Sun 12:49:00 AM 44.7860 7.3044 229° Southwest  Level Estimated
Sun 12:50:00 AM 44.7312 7.2145 229° Southwest  Level Estimated
Sun 12:51:00 AM 44.6764 7.1248 229° Southwest  Level Estimated
Sun 12:52:00 AM 44.6214 7.0352 229° Southwest  Level Estimated
Sun 12:53:00 AM 44.5665 6.9458 229° Southwest  Level Estimated
Sun 12:54:00 AM 44.5114 6.8566 229° Southwest  Level Estimated
Sun 12:55:00 AM 44.4563 6.7675 229° Southwest  Level Estimated
Sun 12:56:00 AM 44.4011 6.6787 229° Southwest  Level Estimated
Sun 12:57:00 AM 44.3458 6.5899 229° Southwest  Level Estimated
Sun 12:58:00 AM 44.2905 6.5014 229° Southwest  Level Estimated
Sun 12:59:00 AM 44.2351 6.4130 229° Southwest  Level Estimated
Sun 01:00:00 AM 44.1796 6.3248 229° Southwest  Level Estimated
Sun 01:01:00 AM 44.1241 6.2367 229° Southwest  Level Estimated
Sun 01:02:00 AM 44.0685 6.1488 229° Southwest  Level Estimated
Sun 01:03:00 AM 44.0128 6.0611 229° Southwest  Level Estimated
Sun 01:04:00 AM 43.9570 5.9736 229° Southwest  Level Estimated
Sun 01:05:00 AM 43.9012 5.8862 228° Southwest  Level Estimated
Sun 01:06:00 AM 43.8454 5.7990 228° Southwest  Level Estimated
Sun 01:07:00 AM 43.7894 5.7119 228° Southwest  Level Estimated
Sun 01:08:00 AM 43.7334 5.6250 228° Southwest  Level Estimated
Sun 01:09:00 AM 43.6773 5.5382 228° Southwest  Level Estimated
Sun 01:10:00 AM 43.6212 5.4517 228° Southwest  Level Estimated
Sun 01:11:00 AM 43.5650 5.3653 228° Southwest  Level Estimated
Sun 01:12:00 AM 43.5087 5.2790 228° Southwest  Level Estimated
Sun 01:13:00 AM 43.4524 5.1929 228° Southwest  Level Estimated
Sun 01:14:00 AM 43.3960 5.1070 228° Southwest  Level Estimated
Sun 01:15:00 AM 43.3395 5.0212 228° Southwest  Level Estimated
Sun 01:16:00 AM 43.2830 4.9356 228° Southwest  Level Estimated
Sun 01:17:00 AM 43.2264 4.8501 228° Southwest  Level Estimated
Sun 01:18:00 AM 43.1698 4.7648 228° Southwest  Level Estimated
Sun 01:19:00 AM 43.1131 4.6797 228° Southwest  Level Estimated
Sun 01:20:00 AM 43.0563 4.5947 228° Southwest  Level Estimated
Sun 01:21:00 AM 42.9995 4.5099 228° Southwest  Level Estimated
Sun 01:22:00 AM 42.9426 4.4252 227° Southwest  Level Estimated
Sun 01:23:00 AM 42.8856 4.3407 227° Southwest  Level Estimated
Sun 01:24:00 AM 42.8229 4.2479 227° Southwest  Level Estimated
Sun 01:25:00 AM 42.7601 4.1554 227° Southwest  Level Estimated
Sun 01:26:00 AM 42.6972 4.0630 227° Southwest  Level Estimated
Sun 01:27:00 AM 42.6342 3.9707 227° Southwest  Level Estimated
Sun 01:28:00 AM 42.5712 3.8787 227° Southwest  Level Estimated
Sun 01:29:00 AM 42.5081 3.7868 227° Southwest  Level Estimated
Sun 01:30:00 AM 42.4449 3.6952 227° Southwest  Level Estimated
Sun 01:31:00 AM 42.3816 3.6037 227° Southwest  Level Estimated
Sun 01:32:00 AM 42.3183 3.5124 227° Southwest  Level Estimated
Sun 01:33:00 AM 42.2549 3.4213 227° Southwest  Level Estimated
Sun 01:34:00 AM 42.1915 3.3304 227° Southwest  Level Estimated
Sun 01:35:00 AM 42.1279 3.2397 227° Southwest  Level Estimated
Sun 01:36:00 AM 42.0643 3.1491 227° Southwest  Level Estimated
Sun 01:37:00 AM 42.0006 3.0587 227° Southwest  Level Estimated
Sun 01:38:00 AM 41.9369 2.9685 226° Southwest  Level Estimated
Sun 01:39:00 AM 41.8731 2.8785 226° Southwest  Level Estimated
Sun 01:40:00 AM 41.8092 2.7887 226° Southwest  Level Estimated
Sun 01:41:00 AM 41.7452 2.6990 226° Southwest  Level Estimated
Sun 01:42:00 AM 41.6812 2.6095 226° Southwest  Level Estimated
Sun 01:43:00 AM 41.6171 2.5202 226° Southwest  Level Estimated
Sun 01:44:00 AM 41.5529 2.4311 226° Southwest  Level Estimated
Sun 01:45:00 AM 41.4887 2.3421 226° Southwest  Level Estimated
Sun 01:46:00 AM 41.4244 2.2534 226° Southwest  Level Estimated
Sun 01:47:00 AM 41.3600 2.1648 226° Southwest  Level Estimated
Sun 01:48:00 AM 41.2971 2.0785 226° Southwest  Level Estimated
Sun 01:49:00 AM 41.2971 2.0785 124° Southeast  Level Estimated
Sun 01:50:00 AM 41.2971 2.0785 124° Southeast  Level Estimated
Sun 01:51:00 AM 41.2971 2.0785 124° Southeast  Level Estimated
Sun 01:52:00 AM 41.2971 2.0785 124° Southeast  Level Estimated
Sun 01:53:00 AM 41.2971 2.0785 124° Southeast  Level Estimated
Sun 01:54:00 AM 41.2971 2.0785 124° Southeast  Level Estimated

Login

Don't have an account? Register now (free) for customized features, flight alerts, and more!